Wetterdaten: Woche 27.06.05 - 03.07.05 (KW26)
Datum Zeit Temperatur Luftfeuchte Luftdruck Niederschlag Wind Richtung Sonne Solar Taupunkt Windchill
27.06.2005 00:00 20.5 C 86 % 1020.9 hPa 0.0 l/m 0.0 km/h (0 Bft) N 0.00 h 0 W/m 18.0 C 20.5 C
27.06.2005 01:00 19.6 C 89 % 1020.5 hPa 0.0 l/m 0.0 km/h (0 Bft) N 0.00 h 0 W/m 17.7 C 19.6 C
27.06.2005 02:00 19.0 C 91 % 1020.3 hPa 0.0 l/m 0.0 km/h (0 Bft) N 0.00 h 0 W/m 17.5 C 19.0 C
27.06.2005 03:00 18.5 C 95 % 1020.6 hPa 0.0 l/m 0.0 km/h (0 Bft) N 0.00 h 0 W/m 17.7 C 18.5 C
27.06.2005 04:00 17.8 C 98 % 1020.3 hPa 0.0 l/m 0.0 km/h (0 Bft) N 0.00 h 0 W/m 17.5 C 17.8 C
27.06.2005 05:00 17.3 C 97 % 1020.9 hPa 0.0 l/m 0.0 km/h (0 Bft) N 0.10 h 14 W/m 16.9 C 17.3 C
27.06.2005 06:00 17.8 C 97 % 1021.3 hPa 0.0 l/m 0.0 km/h (0 Bft) N 0.00 h 57 W/m 17.2 C 17.8 C
27.06.2005 07:00 19.3 C 90 % 1021.1 hPa 0.0 l/m 0.0 km/h (0 Bft) N 0.83 h 209 W/m 17.5 C 19.3 C
27.06.2005 08:00 20.9 C 82 % 1020.9 hPa 0.0 l/m 0.4 km/h (0 Bft) S 1.00 h 381 W/m 17.7 C 20.9 C
27.06.2005 09:00 23.1 C 73 % 1019.6 hPa 0.0 l/m 1.3 km/h (1 Bft) NW 1.00 h 527 W/m 18.1 C 23.1 C
27.06.2005 10:00 25.4 C 67 % 1019.3 hPa 0.0 l/m 1.5 km/h (1 Bft) O 1.00 h 673 W/m 18.7 C 25.4 C
27.06.2005 11:00 27.5 C 59 % 1019.1 hPa 0.0 l/m 5.7 km/h (1 Bft) O-SO 1.00 h 776 W/m 18.8 C 27.5 C
27.06.2005 12:00 29.0 C 53 % 1018.4 hPa 0.0 l/m 6.4 km/h (2 Bft) O-SO 1.00 h 834 W/m 18.3 C 29.0 C
27.06.2005 13:00 30.6 C 45 % 1017.7 hPa 0.0 l/m 2.6 km/h (1 Bft) O-SO 1.00 h 838 W/m 17.2 C 30.6 C
27.06.2005 14:00 32.0 C 38 % 1016.5 hPa 0.0 l/m 2.4 km/h (1 Bft) O-SO 1.00 h 829 W/m 15.7 C 32.0 C
27.06.2005 15:00 33.5 C 31 % 1016.3 hPa 0.0 l/m 9.2 km/h (2 Bft) W-NW 1.00 h 806 W/m 13.7 C 33.5 C
27.06.2005 16:00 34.4 C 29 % 1015.8 hPa 0.0 l/m 5.4 km/h (1 Bft) W-NW 1.00 h 704 W/m 13.9 C 34.4 C
27.06.2005 17:00 34.4 C 26 % 1015.1 hPa 0.0 l/m 7.4 km/h (2 Bft) W-NW 1.00 h 561 W/m 12.1 C 34.4 C
27.06.2005 18:00 33.8 C 29 % 1014.2 hPa 0.0 l/m 5.9 km/h (2 Bft) W-NW 1.00 h 351 W/m 13.4 C 33.8 C
27.06.2005 19:00 30.8 C 44 % 1015.0 hPa 0.0 l/m 2.5 km/h (1 Bft) SO 0.03 h 107 W/m 17.0 C 30.8 C
27.06.2005 20:00 28.2 C 61 % 1015.9 hPa 0.0 l/m 0.5 km/h (0 Bft) SO 0.00 h 30 W/m 20.1 C 28.2 C
27.06.2005 21:00 25.0 C 72 % 1016.1 hPa 0.0 l/m 3.5 km/h (1 Bft) O-SO 0.00 h 7 W/m 19.6 C 25.0 C
27.06.2005 22:00 23.8 C 74 % 1016.4 hPa 0.0 l/m 2.3 km/h (1 Bft) O 0.00 h 0 W/m 18.9 C 23.8 C
27.06.2005 23:00 23.8 C 78 % 1016.4 hPa 0.0 l/m 2.3 km/h (1 Bft) O-SO 0.00 h 0 W/m 19.8 C 23.8 C
28.06.2005 00:00 23.3 C 82 % 1016.6 hPa 0.0 l/m 0.0 km/h (0 Bft) N 0.00 h 0 W/m 20.1 C 23.3 C
28.06.2005 01:00 21.6 C 89 % 1017.7 hPa 0.0 l/m 0.0 km/h (0 Bft) N 0.00 h 0 W/m 19.6 C 21.6 C
28.06.2005 02:00 20.3 C 94 % 1017.0 hPa 0.0 l/m 1.5 km/h (1 Bft) O-SO 0.00 h 0 W/m 19.2 C 20.3 C
28.06.2005 03:00 19.3 C 95 % 1017.0 hPa 0.0 l/m 0.0 km/h (0 Bft) N 0.00 h 0 W/m 18.4 C 19.3 C
28.06.2005 04:00 18.6 C 98 % 1017.1 hPa 0.0 l/m 0.2 km/h (0 Bft) O-SO 0.00 h 0 W/m 18.3 C 18.6 C
28.06.2005 05:00 18.3 C 100 % 1017.1 hPa 0.0 l/m 1.0 km/h (0 Bft) O-SO 0.15 h 16 W/m 18.2 C 18.3 C
28.06.2005 06:00 18.9 C 95 % 1017.0 hPa 0.0 l/m 0.0 km/h (0 Bft) N 0.00 h 58 W/m 18.0 C 18.9 C
28.06.2005 07:00 19.9 C 90 % 1016.9 hPa 0.0 l/m 0.0 km/h (0 Bft) N 0.68 h 195 W/m 18.1 C 19.9 C
28.06.2005 08:00 21.6 C 81 % 1016.7 hPa 0.0 l/m 0.2 km/h (0 Bft) W-NW 1.00 h 392 W/m 18.3 C 21.6 C
28.06.2005 09:00 23.7 C 69 % 1016.4 hPa 0.0 l/m 0.1 km/h (0 Bft) W 1.00 h 535 W/m 17.7 C 23.7 C
28.06.2005 10:00 26.3 C 61 % 1016.1 hPa 0.0 l/m 3.8 km/h (1 Bft) SO 1.02 h 672 W/m 18.0 C 26.3 C
28.06.2005 11:00 28.6 C 50 % 1014.8 hPa 0.0 l/m 2.6 km/h (1 Bft) O-SO 1.00 h 762 W/m 17.0 C 28.6 C
28.06.2005 12:00 30.6 C 46 % 1014.5 hPa 0.0 l/m 4.1 km/h (1 Bft) O-SO 1.00 h 829 W/m 17.5 C 30.6 C
28.06.2005 13:00 32.0 C 39 % 1013.5 hPa 0.0 l/m 4.0 km/h (1 Bft) O-SO 0.98 h 848 W/m 16.2 C 32.0 C
28.06.2005 14:00 33.5 C 32 % 1012.7 hPa 0.0 l/m 2.0 km/h (1 Bft) SO 0.98 h 843 W/m 14.6 C 33.5 C
28.06.2005 15:00 35.0 C 31 % 1012.0 hPa 0.0 l/m 8.2 km/h (2 Bft) O-SO 1.03 h 788 W/m 15.1 C 35.0 C
28.06.2005 16:00 35.1 C 20 % 1011.6 hPa 0.0 l/m 5.9 km/h (2 Bft) O-SO 0.67 h 530 W/m 8.9 C 35.1 C
28.06.2005 17:00 31.9 C 34 % 1011.3 hPa 0.0 l/m 0.2 km/h (0 Bft) O-SO 0.00 h 136 W/m 13.8 C 31.9 C
28.06.2005 18:00 29.8 C 42 % 1011.5 hPa 0.0 l/m 11.4 km/h (2 Bft) W-NW 0.23 h 115 W/m 15.6 C 29.8 C
28.06.2005 19:00 29.1 C 48 % 1010.9 hPa 0.0 l/m 2.4 km/h (1 Bft) O-SO 0.40 h 132 W/m 16.9 C 29.1 C
28.06.2005 20:00 27.5 C 58 % 1010.8 hPa 0.0 l/m 3.0 km/h (1 Bft) O-SO 0.03 h 46 W/m 18.3 C 27.5 C
28.06.2005 21:00 25.5 C 65 % 1010.9 hPa 0.0 l/m 2.5 km/h (1 Bft) O-SO 0.00 h 9 W/m 18.4 C 25.5 C
28.06.2005 22:00 23.8 C 70 % 1011.2 hPa 0.0 l/m 5.7 km/h (1 Bft) O-SO 0.00 h 0 W/m 18.0 C 23.8 C
28.06.2005 23:00 23.2 C 74 % 1011.3 hPa 0.0 l/m 0.5 km/h (0 Bft) O-SO 0.00 h 0 W/m 18.2 C 23.2 C
29.06.2005 00:00 22.7 C 82 % 1012.1 hPa 0.3 l/m 1.3 km/h (1 Bft) SO 0.00 h 0 W/m 19.5 C 22.7 C
29.06.2005 01:00 21.6 C 92 % 1011.6 hPa 0.0 l/m 2.2 km/h (1 Bft) O-SO 0.00 h 0 W/m 20.2 C 21.6 C
29.06.2005 02:00 21.2 C 94 % 1011.5 hPa 0.0 l/m 0.9 km/h (0 Bft) O-SO 0.00 h 0 W/m 20.2 C 21.2 C
29.06.2005 03:00 21.0 C 94 % 1010.8 hPa 0.0 l/m 0.0 km/h (0 Bft) N 0.00 h 0 W/m 20.0 C 21.0 C
29.06.2005 04:00 19.9 C 98 % 1010.7 hPa 0.0 l/m 0.6 km/h (0 Bft) O-SO 0.00 h 0 W/m 19.5 C 19.9 C
29.06.2005 05:00 19.6 C 99 % 1010.6 hPa 0.0 l/m 1.4 km/h (1 Bft) O-SO 0.00 h 9 W/m 19.4 C 19.6 C
29.06.2005 06:00 19.3 C 97 % 1009.7 hPa 0.0 l/m 0.4 km/h (0 Bft) O-SO 0.00 h 47 W/m 18.8 C 19.3 C
29.06.2005 07:00 20.9 C 91 % 1009.5 hPa 0.0 l/m 1.2 km/h (1 Bft) O-SO 0.77 h 244 W/m 19.3 C 20.9 C
29.06.2005 08:00 22.8 C 79 % 1009.3 hPa 0.0 l/m 1.5 km/h (1 Bft) O-SO 1.00 h 408 W/m 19.0 C 22.8 C
29.06.2005 09:00 24.5 C 69 % 1009.6 hPa 0.0 l/m 0.0 km/h (0 Bft) W-NW 1.00 h 574 W/m 18.5 C 24.5 C
29.06.2005 10:00 26.8 C 51 % 1008.9 hPa 0.0 l/m 14.7 km/h (3 Bft) W-NW 0.43 h 398 W/m 15.7 C 26.8 C
29.06.2005 11:00 27.5 C 48 % 1008.7 hPa 0.0 l/m 7.9 km/h (2 Bft) W-NW 0.63 h 597 W/m 15.4 C 27.5 C
29.06.2005 12:00 29.2 C 41 % 1007.5 hPa 0.0 l/m 16.0 km/h (3 Bft) W-NW 0.93 h 705 W/m 14.6 C 29.2 C
29.06.2005 13:00 30.2 C 37 % 1006.9 hPa 0.0 l/m 13.3 km/h (3 Bft) W-NW 0.93 h 830 W/m 14.0 C 30.2 C
29.06.2005 14:00 30.5 C 37 % 1006.1 hPa 0.0 l/m 20.1 km/h (4 Bft) W-NW 0.58 h 589 W/m 14.2 C 30.5 C
29.06.2005 15:00 26.3 C 52 % 1006.0 hPa 0.0 l/m 7.1 km/h (2 Bft) O-SO 0.00 h 102 W/m 15.6 C 26.3 C
29.06.2005 16:00 20.7 C 71 % 1007.7 hPa 0.3 l/m 20.0 km/h (4 Bft) W-NW 0.00 h 100 W/m 15.1 C 20.7 C
29.06.2005 17:00 21.9 C 66 % 1007.3 hPa 0.0 l/m 4.2 km/h (1 Bft) NW 0.48 h 356 W/m 15.3 C 21.9 C
29.06.2005 18:00 20.7 C 76 % 1007.9 hPa 11.0 l/m 21.9 km/h (4 Bft) NW 0.00 h 32 W/m 16.1 C 20.7 C
29.06.2005 19:00 18.2 C 99 % 1008.3 hPa 0.3 l/m 7.4 km/h (2 Bft) N-NW 0.00 h 16 W/m 18.0 C 18.2 C
29.06.2005 20:00 18.3 C 98 % 1009.5 hPa 0.0 l/m 7.9 km/h (2 Bft) SO 0.53 h 58 W/m 18.0 C 18.3 C
29.06.2005 21:00 17.4 C 99 % 1009.9 hPa 0.0 l/m 3.4 km/h (1 Bft) SO 0.07 h 12 W/m 17.2 C 17.4 C
29.06.2005 22:00 17.0 C 100 % 1010.7 hPa 0.3 l/m 1.1 km/h (0 Bft) O-SO 0.00 h 0 W/m 17.0 C 17.0 C
29.06.2005 23:00 16.6 C 100 % 1011.1 hPa 0.0 l/m 0.7 km/h (0 Bft) SO 0.00 h 0 W/m 16.6 C 16.6 C
30.06.2005 00:00 16.6 C 100 % 1011.1 hPa 0.0 l/m 0.9 km/h (0 Bft) O-SO 0.00 h 0 W/m 16.6 C 16.6 C
30.06.2005 01:00 16.6 C 100 % 1011.1 hPa 0.0 l/m 0.8 km/h (0 Bft) O-SO 0.00 h 0 W/m 16.6 C 16.6 C
30.06.2005 02:00 16.3 C 100 % 1011.1 hPa 0.0 l/m 1.1 km/h (0 Bft) O-SO 0.00 h 0 W/m 16.3 C 16.3 C
30.06.2005 03:00 16.6 C 100 % 1011.1 hPa 0.0 l/m 2.0 km/h (1 Bft) O-SO 0.00 h 0 W/m 16.6 C 16.6 C
30.06.2005 04:00 16.4 C 100 % 1011.1 hPa 0.0 l/m 0.0 km/h (0 Bft) N 0.00 h 0 W/m 16.4 C 16.4 C
30.06.2005 05:00 16.4 C 100 % 1011.1 hPa 0.0 l/m 0.4 km/h (0 Bft) SO 0.07 h 12 W/m 16.4 C 16.4 C
30.06.2005 06:00 16.9 C 100 % 1011.1 hPa 0.0 l/m 0.1 km/h (0 Bft) N 0.00 h 31 W/m 16.9 C 16.9 C
30.06.2005 07:00 17.2 C 95 % 1011.9 hPa 0.0 l/m 0.3 km/h (0 Bft) NW 0.00 h 76 W/m 16.3 C 17.2 C
30.06.2005 08:00 17.5 C 92 % 1012.0 hPa 0.0 l/m 2.1 km/h (1 Bft) W-NW 0.13 h 163 W/m 16.2 C 17.5 C
30.06.2005 09:00 18.2 C 85 % 1011.9 hPa 0.0 l/m 7.2 km/h (2 Bft) W-NW 0.30 h 244 W/m 15.7 C 18.2 C
30.06.2005 10:00 19.3 C 77 % 1011.8 hPa 0.0 l/m 15.5 km/h (3 Bft) W-NW 0.70 h 583 W/m 15.1 C 19.3 C
30.06.2005 11:00 21.1 C 65 % 1011.6 hPa 0.0 l/m 18.0 km/h (3 Bft) W-NW 0.93 h 811 W/m 14.3 C 21.1 C
30.06.2005 12:00 22.1 C 60 % 1011.4 hPa 0.0 l/m 12.2 km/h (3 Bft) W-NW 0.53 h 530 W/m 13.9 C 22.1 C
30.06.2005 13:00 22.3 C 57 % 1011.4 hPa 0.0 l/m 15.9 km/h (3 Bft) W-NW 0.57 h 594 W/m 13.3 C 22.3 C
30.06.2005 14:00 22.5 C 56 % 1011.4 hPa 0.0 l/m 13.0 km/h (3 Bft) W-NW 0.33 h 411 W/m 13.2 C 22.5 C
30.06.2005 15:00 23.6 C 52 % 1011.2 hPa 0.0 l/m 14.4 km/h (3 Bft) W-NW 0.77 h 687 W/m 13.2 C 23.6 C
30.06.2005 16:00 24.8 C 48 % 1010.1 hPa 0.0 l/m 16.1 km/h (3 Bft) W-NW 1.00 h 694 W/m 13.1 C 24.8 C
30.06.2005 17:00 25.5 C 47 % 1010.0 hPa 0.0 l/m 12.5 km/h (3 Bft) W-NW 1.00 h 577 W/m 13.4 C 25.5 C
30.06.2005 18:00 25.4 C 46 % 1010.0 hPa 0.0 l/m 19.2 km/h (3 Bft) W-NW 0.93 h 443 W/m 12.8 C 25.4 C
30.06.2005 19:00 24.3 C 49 % 1010.1 hPa 0.0 l/m 11.6 km/h (2 Bft) W-NW 0.33 h 164 W/m 12.7 C 24.3 C
30.06.2005 20:00 23.1 C 53 % 1010.3 hPa 0.0 l/m 12.1 km/h (2 Bft) W-NW 0.15 h 52 W/m 12.9 C 23.1 C
30.06.2005 21:00 21.9 C 59 % 1010.4 hPa 0.0 l/m 11.4 km/h (2 Bft) W-NW 0.03 h 9 W/m 13.4 C 21.9 C
30.06.2005 22:00 20.9 C 61 % 1010.6 hPa 0.0 l/m 9.3 km/h (2 Bft) W-NW 0.00 h 0 W/m 13.2 C 20.9 C
30.06.2005 23:00 20.1 C 65 % 1010.8 hPa 0.0 l/m 9.6 km/h (2 Bft) W-NW 0.00 h 0 W/m 13.3 C 20.1 C
01.07.2005 00:00 19.7 C 67 % 1011.7 hPa 0.0 l/m 22.3 km/h (4 Bft) W-NW 0.00 h 0 W/m 13.4 C 19.7 C
01.07.2005 01:00 17.3 C 84 % 1012.8 hPa 0.3 l/m 34.5 km/h (5 Bft) W-NW 0.00 h 0 W/m 14.4 C 17.3 C
01.07.2005 02:00 16.0 C 96 % 1012.5 hPa 0.0 l/m 13.3 km/h (3 Bft) W-NW 0.00 h 0 W/m 15.4 C 16.0 C
01.07.2005 03:00 16.2 C 95 % 1013.1 hPa 0.0 l/m 16.4 km/h (3 Bft) W-NW 0.00 h 0 W/m 15.5 C 16.2 C
01.07.2005 04:00 16.3 C 92 % 1013.2 hPa 0.0 l/m 11.0 km/h (2 Bft) W 0.00 h 0 W/m 14.9 C 16.3 C
01.07.2005 05:00 15.6 C 93 % 1013.5 hPa 0.0 l/m 2.7 km/h (1 Bft) W-SW 0.00 h 2 W/m 14.5 C 15.6 C
01.07.2005 06:00 15.6 C 94 % 1014.3 hPa 0.3 l/m 1.4 km/h (1 Bft) S-SO 0.00 h 13 W/m 14.5 C 15.6 C
01.07.2005 07:00 15.1 C 88 % 1014.8 hPa 0.0 l/m 3.9 km/h (1 Bft) SO 0.00 h 53 W/m 13.1 C 15.1 C
01.07.2005 08:00 15.5 C 87 % 1015.4 hPa 0.3 l/m 0.6 km/h (0 Bft) W-SW 0.00 h 117 W/m 13.3 C 15.5 C
01.07.2005 09:00 15.9 C 86 % 1015.3 hPa 0.3 l/m 9.2 km/h (2 Bft) W 0.20 h 294 W/m 13.6 C 15.9 C
01.07.2005 10:00 17.0 C 76 % 1015.2 hPa 0.0 l/m 23.2 km/h (4 Bft) W-NW 0.30 h 372 W/m 12.6 C 17.0 C
01.07.2005 11:00 18.0 C 68 % 1016.1 hPa 0.0 l/m 24.0 km/h (4 Bft) W-NW 0.27 h 324 W/m 11.9 C 18.0 C
01.07.2005 12:00 18.3 C 64 % 1016.1 hPa 0.0 l/m 25.1 km/h (4 Bft) W-NW 0.00 h 265 W/m 11.4 C 18.3 C
01.07.2005 13:00 18.0 C 67 % 1017.1 hPa 0.0 l/m 28.3 km/h (4 Bft) W-NW 0.00 h 230 W/m 11.8 C 18.0 C
01.07.2005 14:00 18.6 C 62 % 1017.2 hPa 0.0 l/m 28.7 km/h (4 Bft) W-NW 0.13 h 323 W/m 11.2 C 18.6 C
01.07.2005 15:00 19.3 C 56 % 1018.0 hPa 0.0 l/m 28.9 km/h (5 Bft) W-NW 0.40 h 398 W/m 10.2 C 19.3 C
01.07.2005 16:00 19.0 C 56 % 1018.1 hPa 0.0 l/m 23.0 km/h (4 Bft) W-NW 0.33 h 332 W/m 10.1 C 19.0 C
01.07.2005 17:00 19.2 C 57 % 1018.0 hPa 0.0 l/m 10.0 km/h (2 Bft) W-NW 0.07 h 141 W/m 10.3 C 19.2 C
01.07.2005 18:00 19.7 C 51 % 1019.0 hPa 0.0 l/m 18.9 km/h (3 Bft) W-NW 0.30 h 234 W/m 9.3 C 19.7 C
01.07.2005 19:00 20.0 C 51 % 1019.0 hPa 0.0 l/m 22.5 km/h (4 Bft) W-NW 0.48 h 202 W/m 9.4 C 20.0 C
01.07.2005 20:00 19.0 C 56 % 1020.0 hPa 0.0 l/m 14.7 km/h (3 Bft) W-NW 0.58 h 78 W/m 9.9 C 19.0 C
01.07.2005 21:00 17.4 C 64 % 1021.0 hPa 0.0 l/m 1.2 km/h (1 Bft) W-NW 0.10 h 12 W/m 10.6 C 17.4 C
01.07.2005 22:00 15.9 C 76 % 1022.0 hPa 0.0 l/m 2.1 km/h (1 Bft) SO 0.00 h 0 W/m 11.6 C 15.9 C
01.07.2005 23:00 15.6 C 77 % 1022.6 hPa 0.0 l/m 3.0 km/h (1 Bft) SO 0.00 h 0 W/m 11.6 C 15.6 C
02.07.2005 00:00 15.7 C 82 % 1022.6 hPa 0.0 l/m 0.0 km/h (0 Bft) N 0.00 h 0 W/m 12.6 C 15.7 C
02.07.2005 01:00 15.3 C 85 % 1022.7 hPa 0.3 l/m 0.4 km/h (0 Bft) SO 0.00 h 0 W/m 12.7 C 15.3 C
02.07.2005 02:00 14.4 C 96 % 1022.8 hPa 0.0 l/m 2.8 km/h (1 Bft) O-SO 0.00 h 0 W/m 13.7 C 14.4 C
02.07.2005 03:00 14.5 C 98 % 1022.1 hPa 0.0 l/m 2.9 km/h (1 Bft) O-SO 0.00 h 0 W/m 14.2 C 14.5 C
02.07.2005 04:00 14.6 C 98 % 1021.9 hPa 0.0 l/m 0.9 km/h (0 Bft) O-SO 0.00 h 0 W/m 14.2 C 14.6 C
02.07.2005 05:00 15.0 C 93 % 1022.5 hPa 0.0 l/m 0.0 km/h (0 Bft) N 0.00 h 2 W/m 13.9 C 15.0 C
02.07.2005 06:00 14.8 C 95 % 1022.7 hPa 0.0 l/m 0.4 km/h (0 Bft) S-SO 0.00 h 8 W/m 14.0 C 14.8 C
02.07.2005 07:00 14.7 C 94 % 1022.8 hPa 0.0 l/m 1.2 km/h (1 Bft) O-SO 0.00 h 43 W/m 13.8 C 14.7 C
02.07.2005 08:00 15.6 C 89 % 1022.8 hPa 0.0 l/m 0.6 km/h (0 Bft) S-SW 0.27 h 195 W/m 13.8 C 15.6 C
02.07.2005 09:00 16.7 C 83 % 1023.5 hPa 0.0 l/m 3.3 km/h (1 Bft) S-SO 0.40 h 300 W/m 13.8 C 16.7 C
02.07.2005 10:00 17.5 C 81 % 1023.4 hPa 0.0 l/m 3.0 km/h (1 Bft) O-SO 0.03 h 295 W/m 14.1 C 17.5 C
02.07.2005 11:00 18.6 C 75 % 1023.3 hPa 0.0 l/m 2.2 km/h (1 Bft) W-NW 0.97 h 523 W/m 14.2 C 18.6 C
02.07.2005 12:00 20.1 C 67 % 1023.0 hPa 0.0 l/m 3.7 km/h (1 Bft) O-SO 0.93 h 554 W/m 13.9 C 20.1 C
02.07.2005 13:00 20.5 C 64 % 1022.0 hPa 0.0 l/m 3.4 km/h (1 Bft) W-NW 0.28 h 400 W/m 13.4 C 20.5 C
02.07.2005 14:00 21.3 C 62 % 1021.9 hPa 0.0 l/m 3.3 km/h (1 Bft) W-NW 0.60 h 465 W/m 13.8 C 21.3 C
02.07.2005 15:00 20.9 C 64 % 1022.0 hPa 0.0 l/m 1.4 km/h (1 Bft) W-NW 0.03 h 273 W/m 13.9 C 20.9 C
02.07.2005 16:00 21.7 C 62 % 1021.5 hPa 0.0 l/m 4.0 km/h (1 Bft) W-NW 0.52 h 420 W/m 14.0 C 21.7 C
02.07.2005 17:00 23.4 C 54 % 1020.6 hPa 0.0 l/m 14.6 km/h (3 Bft) W-NW 0.92 h 580 W/m 13.5 C 23.4 C
02.07.2005 18:00 22.3 C 59 % 1020.7 hPa 0.0 l/m 11.8 km/h (2 Bft) W-NW 1.00 h 297 W/m 13.8 C 22.3 C
02.07.2005 19:00 21.6 C 62 % 1020.8 hPa 0.0 l/m 10.7 km/h (2 Bft) W-NW 0.83 h 174 W/m 14.0 C 21.6 C
02.07.2005 20:00 20.7 C 66 % 1020.9 hPa 0.0 l/m 2.8 km/h (1 Bft) W-NW 0.00 h 53 W/m 14.1 C 20.7 C
02.07.2005 21:00 19.9 C 70 % 1021.0 hPa 0.0 l/m 0.3 km/h (0 Bft) W-NW 0.00 h 10 W/m 14.4 C 19.9 C
02.07.2005 22:00 19.3 C 75 % 1021.1 hPa 0.0 l/m 0.0 km/h (0 Bft) N 0.00 h 0 W/m 14.7 C 19.3 C
02.07.2005 23:00 18.5 C 81 % 1021.2 hPa 0.0 l/m 0.9 km/h (0 Bft) W 0.00 h 0 W/m 15.2 C 18.5 C
03.07.2005 00:00 17.9 C 84 % 1021.1 hPa 0.0 l/m 0.8 km/h (0 Bft) S-SO 0.00 h 0 W/m 15.1 C 17.9 C
03.07.2005 01:00 17.2 C 89 % 1020.4 hPa 0.0 l/m 2.7 km/h (1 Bft) SO 0.00 h 0 W/m 15.3 C 17.2 C
03.07.2005 02:00 16.0 C 94 % 1020.5 hPa 0.0 l/m 4.5 km/h (1 Bft) O-SO 0.00 h 0 W/m 15.0 C 16.0 C
03.07.2005 03:00 15.6 C 98 % 1020.6 hPa 0.0 l/m 3.6 km/h (1 Bft) O-SO 0.00 h 0 W/m 15.3 C 15.6 C
03.07.2005 04:00 15.2 C 97 % 1020.1 hPa 0.0 l/m 2.1 km/h (1 Bft) O-SO 0.00 h 0 W/m 14.8 C 15.2 C
03.07.2005 05:00 14.3 C 100 % 1019.7 hPa 0.0 l/m 3.0 km/h (1 Bft) O-SO 0.07 h 12 W/m 14.3 C 14.3 C
03.07.2005 06:00 14.6 C 98 % 1019.7 hPa 0.0 l/m 3.9 km/h (1 Bft) O-SO 0.00 h 45 W/m 14.3 C 14.6 C
03.07.2005 07:00 16.1 C 92 % 1019.5 hPa 0.0 l/m 0.0 km/h (0 Bft) N 0.87 h 247 W/m 14.8 C 16.1 C
03.07.2005 08:00 18.1 C 84 % 1019.2 hPa 0.0 l/m 0.7 km/h (0 Bft) O-SO 1.00 h 418 W/m 15.3 C 18.1 C
03.07.2005 09:00 21.1 C 70 % 1018.8 hPa 0.0 l/m 10.1 km/h (2 Bft) O-SO 1.00 h 570 W/m 15.3 C 21.1 C
03.07.2005 10:00 23.0 C 62 % 1018.6 hPa 0.0 l/m 9.4 km/h (2 Bft) O-SO 1.00 h 722 W/m 15.2 C 23.0 C
03.07.2005 11:00 23.9 C 59 % 1017.6 hPa 0.0 l/m 4.6 km/h (1 Bft) O-SO 0.97 h 806 W/m 15.4 C 23.9 C
03.07.2005 12:00 25.4 C 52 % 1017.2 hPa 0.0 l/m 6.9 km/h (2 Bft) O-SO 0.97 h 840 W/m 14.8 C 25.4 C
03.07.2005 13:00 25.3 C 51 % 1016.6 hPa 0.0 l/m 1.7 km/h (1 Bft) NO 0.50 h 512 W/m 14.5 C 25.3 C
03.07.2005 14:00 26.0 C 48 % 1016.1 hPa 0.0 l/m 3.2 km/h (1 Bft) NW 1.00 h 639 W/m 14.3 C 26.0 C
03.07.2005 15:00 27.6 C 42 % 1015.5 hPa 0.0 l/m 4.9 km/h (1 Bft) W-NW 1.00 h 839 W/m 13.4 C 27.6 C
03.07.2005 16:00 28.2 C 40 % 1014.8 hPa 0.0 l/m 4.3 km/h (1 Bft) O-SO 0.72 h 615 W/m 13.4 C 28.2 C
03.07.2005 17:00 27.8 C 44 % 1014.9 hPa 0.0 l/m 7.4 km/h (2 Bft) O-SO 0.48 h 415 W/m 14.2 C 27.8 C
03.07.2005 18:00 27.9 C 40 % 1014.9 hPa 0.0 l/m 6.6 km/h (2 Bft) O-SO 1.00 h 452 W/m 13.0 C 27.9 C
03.07.2005 19:00 26.5 C 44 % 1015.0 hPa 0.0 l/m 5.7 km/h (1 Bft) O-SO 0.53 h 205 W/m 13.3 C 26.5 C
03.07.2005 20:00 24.6 C 53 % 1015.1 hPa 0.0 l/m 5.2 km/h (1 Bft) O-SO 0.87 h 120 W/m 14.4 C 24.6 C
03.07.2005 21:00 22.4 C 60 % 1014.5 hPa 0.0 l/m 6.2 km/h (2 Bft) O-SO 0.27 h 29 W/m 14.4 C 22.4 C
03.07.2005 22:00 19.9 C 70 % 1014.8 hPa 0.0 l/m 0.0 km/h (0 Bft) N 0.00 h 0 W/m 14.2 C 19.9 C
03.07.2005 23:00 18.3 C 80 % 1014.4 hPa 0.0 l/m 0.0 km/h (0 Bft) N 0.00 h 0 W/m 14.8 C 18.3 C
Min-Datum _ 02.07.05 27.06.05 29.06.05 - 27.06.05 - - - 28.06.05 02.07.05
_ Min-Zeit 02:45 17:30 14:44 - 00:00 - - - 17:03 02:45
Minimum _ 14.1 C 20 % 1005.2 hPa - 0.0 km/h (0 Bft) - - - 7.2 C 14.1 C
Max-Datum _ 28.06.05 27.06.05 02.07.05 29.06.05 29.06.05 - 27.06.05 01.07.05 28.06.05 28.06.05
_ Max-Zeit 16:03 04:28 08:59 18:45 16:11 - 17:33 15:15 00:13 16:03
Maximum _ 35.8 C 100 % 1023.6 hPa 11.0 l/m 66.4 km/h
W-NW (8 Bft)
- 0.05 h 1006 W/m 20.7 C 35.8 C
Durchschnitt _ 21.5 C 72 % 1015.6 hPa #14.0 l/m 6.1 km/h (2 Bft) W-NW #59:29 h 347 W/m 15.3 C 21.5 C

Durchschnitt Minimum Temp.20.8 C
Durchschnitt Maximum Temp.22.2 C
© Kaiko 2005